Time;durP1;ratioP1;P1;durP2;ratioP2;P2;SDS_P1;SDS_P2;PMS_P1;PMS_P2;Temp;Humidity;BMP_temperature;BMP_pressure;BME280_temperature;BME280_humidity;BME280_pressure;Samples;Min_cycle;Max_cycle;Signal;HPM_P1;HPM_P2
2021/11/04 00:02:24;;;;;;;3.53;3.23;;;9.90;99.90;;;;;;5015944;28;20655;-58
2021/11/04 00:04:50;;;;;;;3.27;2.97;;;10.00;99.90;;;;;;5015587;28;20670;-54
2021/11/04 00:07:17;;;;;;;3.67;3.37;;;9.90;99.90;;;;;;5015824;28;20168;-57
2021/11/04 00:09:42;;;;;;;4.10;2.90;;;9.90;99.90;;;;;;5014240;28;20221;-56
2021/11/04 00:12:09;;;;;;;2.90;2.70;;;10.00;99.90;;;;;;5015503;28;20816;-58
2021/11/04 00:14:35;;;;;;;3.57;3.27;;;10.00;99.90;;;;;;5015236;28;20563;-53
2021/11/04 00:17:00;;;;;;;3.30;3.00;;;10.00;99.90;;;;;;5015469;28;20400;-56
2021/11/04 00:19:26;;;;;;;3.43;3.13;;;10.00;99.90;;;;;;5014889;28;20225;-58
2021/11/04 00:21:52;;;;;;;3.33;3.03;;;10.10;99.90;;;;;;5015492;28;20757;-54
2021/11/04 00:24:17;;;;;;;4.50;3.30;;;10.00;99.90;;;;;;5015219;28;20750;-55
2021/11/04 00:26:43;;;;;;;3.67;2.73;;;10.00;99.90;;;;;;5015408;28;20255;-58
2021/11/04 00:29:09;;;;;;;3.03;2.83;;;10.00;99.90;;;;;;5015261;28;20247;-58
2021/11/04 00:31:35;;;;;;;2.47;2.30;;;10.10;99.90;;;;;;5014478;28;20215;-55
2021/11/04 00:34:01;;;;;;;3.10;2.80;;;10.00;99.90;;;;;;5015006;28;20411;-56
2021/11/04 00:36:27;;;;;;;2.33;2.13;;;10.10;99.90;;;;;;5015094;28;20411;-57
2021/11/04 00:38:53;;;;;;;2.50;2.30;;;10.00;99.90;;;;;;5015044;28;20413;-57
2021/11/04 00:41:19;;;;;;;2.70;2.07;;;10.10;99.90;;;;;;5014907;28;20193;-56
2021/11/04 00:43:45;;;;;;;2.43;1.97;;;10.10;99.90;;;;;;5014919;28;20193;-55
2021/11/04 00:46:12;;;;;;;2.30;2.10;;;10.10;99.90;;;;;;5014470;28;20813;-58
2021/11/04 00:48:38;;;;;;;1.93;1.73;;;10.20;99.90;;;;;;5015003;28;20403;-56
2021/11/04 00:51:05;;;;;;;1.73;1.50;;;10.20;99.90;;;;;;5014988;28;20472;-58
2021/11/04 00:53:31;;;;;;;2.07;1.93;;;10.30;99.90;;;;;;5014979;28;20398;-52
2021/11/04 00:55:59;;;;;;;2.10;1.43;;;10.20;99.90;;;;;;5014940;28;20461;-56
2021/11/04 00:58:25;;;;;;;1.63;1.53;;;10.20;99.90;;;;;;5014918;28;20422;-52
2021/11/04 01:00:51;;;;;;;1.43;1.33;;;10.10;99.90;;;;;;5014271;28;21003;-57
2021/11/04 01:03:16;;;;;;;1.73;1.00;;;10.20;99.90;;;;;;5014820;28;20251;-56
2021/11/04 01:05:42;;;;;;;1.67;1.43;;;10.20;99.90;;;;;;5014462;28;20191;-55
2021/11/04 01:08:08;;;;;;;1.60;1.50;;;10.20;99.90;;;;;;5012192;28;20604;-55
2021/11/04 01:10:34;;;;;;;1.10;1.00;;;10.00;99.90;;;;;;5004822;28;20198;-56
2021/11/04 01:13:00;;;;;;;1.53;1.20;;;10.10;99.90;;;;;;5014957;28;20167;-58
2021/11/04 01:15:25;;;;;;;1.67;1.00;;;10.20;99.90;;;;;;5014146;28;20265;-58
2021/11/04 01:17:51;;;;;;;3.23;1.53;;;10.30;99.90;;;;;;5014502;28;20968;-57
2021/11/04 01:20:18;;;;;;;1.10;1.00;;;10.30;99.90;;;;;;5010923;28;20196;-57
2021/11/04 01:22:45;;;;;;;2.23;1.37;;;10.30;99.90;;;;;;5014608;28;20486;-58
2021/11/04 01:25:10;;;;;;;2.20;1.37;;;10.40;99.90;;;;;;5014403;28;20451;-58
2021/11/04 01:27:36;;;;;;;1.60;1.50;;;10.40;99.90;;;;;;5014308;28;20395;-57
2021/11/04 01:30:06;;;;;;;1.60;1.50;;;10.30;99.90;;;;;;5013291;28;20195;-57
2021/11/04 01:32:32;;;;;;;1.73;1.60;;;10.30;99.90;;;;;;5013987;28;20172;-56
2021/11/04 01:34:59;;;;;;;1.50;1.40;;;10.20;99.90;;;;;;5014374;28;20426;-58
2021/11/04 01:37:25;;;;;;;1.60;1.50;;;10.30;99.90;;;;;;5013871;28;20858;-57
2021/11/04 01:39:50;;;;;;;1.60;1.50;;;10.30;99.90;;;;;;5014320;28;20494;-58
2021/11/04 01:42:18;;;;;;;1.30;1.20;;;10.20;99.90;;;;;;5013909;28;20171;-58
2021/11/04 01:44:44;;;;;;;2.70;1.43;;;10.10;99.90;;;;;;5014152;28;20268;-55
2021/11/04 01:47:10;;;;;;;2.17;1.50;;;10.20;99.90;;;;;;5013611;28;20498;-58
2021/11/04 01:49:43;;;;;;;1.70;1.60;;;9.80;99.90;;;;;;5014036;28;20820;-57
2021/11/04 01:52:11;;;;;;;1.70;1.60;;;9.90;99.90;;;;;;5013880;28;20392;-57
2021/11/04 01:54:37;;;;;;;1.63;1.53;;;10.00;99.90;;;;;;5014349;28;20480;-57
2021/11/04 01:57:04;;;;;;;1.77;1.67;;;9.90;99.90;;;;;;5013900;28;20411;-55
2021/11/04 01:59:30;;;;;;;1.70;1.40;;;10.10;99.90;;;;;;5013420;28;20411;-57
2021/11/04 02:02:05;;;;;;;2.40;1.53;;;10.10;99.90;;;;;;5012980;28;20432;-55
2021/11/04 02:04:51;;;;;;;1.67;1.57;;;10.10;99.90;;;;;;5013798;28;20547;-53
2021/11/04 02:07:43;;;;;;;2.40;1.87;;;10.00;99.90;;;;;;5013687;28;20462;-58
2021/11/04 02:10:22;;;;;;;2.27;2.07;;;9.90;99.90;;;;;;5013775;28;20505;-56
2021/11/04 02:13:01;;;;;;;1.90;1.70;;;9.80;99.90;;;;;;5013323;28;20448;-58
2021/11/04 02:15:32;;;;;;;2.07;1.97;;;9.60;99.90;;;;;;5013084;28;20440;-57
2021/11/04 02:17:59;;;;;;;2.13;1.93;;;9.20;99.90;;;;;;5013491;28;20389;-58
2021/11/04 02:20:37;;;;;;;1.63;1.53;;;9.10;99.90;;;;;;5013347;28;20436;-55
2021/11/04 02:23:17;;;;;;;1.70;1.60;;;9.00;99.90;;;;;;5013275;28;20394;-57
2021/11/04 02:25:44;;;;;;;1.70;1.60;;;9.10;99.90;;;;;;5013306;28;20537;-57
2021/11/04 02:28:12;;;;;;;2.30;2.10;;;9.20;99.90;;;;;;5013532;28;20401;-56
2021/11/04 02:30:39;;;;;;;2.20;2.00;;;9.10;99.90;;;;;;5013029;28;20886;-53
2021/11/04 02:33:06;;;;;;;2.23;1.93;;;9.10;99.90;;;;;;5013327;28;20906;-56
2021/11/04 02:35:32;;;;;;;1.47;1.37;;;9.10;99.90;;;;;;5013528;28;20964;-58
2021/11/04 02:37:58;;;;;;;3.10;2.00;;;9.30;99.90;;;;;;5013008;28;20440;-57
2021/11/04 02:40:24;;;;;;;2.33;1.97;;;9.30;99.90;;;;;;5013144;28;20434;-54
2021/11/04 02:42:52;;;;;;;4.00;2.20;;;9.40;99.90;;;;;;5016795;28;20504;-55
2021/11/04 02:45:25;;;;;;;1.90;1.80;;;9.30;99.90;;;;;;5016433;28;20448;-56
2021/11/04 02:47:51;;;;;;;1.60;1.50;;;9.30;99.90;;;;;;5017403;28;20414;-57
2021/11/04 02:50:18;;;;;;;2.30;1.73;;;9.40;99.90;;;;;;5017063;28;20504;-56
2021/11/04 02:52:44;;;;;;;1.87;1.77;;;9.30;99.90;;;;;;5017338;28;20538;-56
2021/11/04 02:55:10;;;;;;;1.97;1.87;;;9.30;99.90;;;;;;5017288;28;20454;-58
2021/11/04 02:57:49;;;;;;;1.80;1.70;;;9.30;99.90;;;;;;5017000;28;20422;-52
2021/11/04 03:00:16;;;;;;;1.73;1.57;;;9.30;99.90;;;;;;5016751;28;20236;-50
2021/11/04 03:02:43;;;;;;;1.70;1.60;;;9.20;99.90;;;;;;5015563;28;20424;-52
2021/11/04 03:05:09;;;;;;;1.50;1.40;;;9.10;99.90;;;;;;5015662;28;20550;-51
2021/11/04 03:07:35;;;;;;;1.37;1.20;;;8.90;99.90;;;;;;5016694;28;20409;-53
2021/11/04 03:10:00;;;;;;;1.30;1.17;;;9.00;99.90;;;;;;5016894;28;20430;-50
2021/11/04 03:12:26;;;;;;;1.87;1.27;;;8.80;99.90;;;;;;5016672;28;20639;-51
2021/11/04 03:14:53;;;;;;;1.47;1.27;;;8.90;99.90;;;;;;5016585;28;20229;-51
2021/11/04 03:17:19;;;;;;;1.30;1.10;;;8.80;99.90;;;;;;5016838;28;20175;-53
2021/11/04 03:19:46;;;;;;;1.80;1.07;;;9.00;99.90;;;;;;5016038;28;20459;-53
2021/11/04 03:22:12;;;;;;;2.10;1.10;;;9.00;99.90;;;;;;5016521;28;20918;-53
2021/11/04 03:24:37;;;;;;;1.20;1.00;;;9.00;99.90;;;;;;5016349;28;20900;-55
2021/11/04 03:27:06;;;;;;;0.90;0.80;;;9.10;99.90;;;;;;5015904;28;20963;-53
2021/11/04 03:29:36;;;;;;;1.23;1.00;;;9.10;99.90;;;;;;5013387;28;20537;-57
2021/11/04 03:32:04;;;;;;;1.30;1.20;;;9.20;99.90;;;;;;5013539;28;20512;-54
2021/11/04 03:34:31;;;;;;;2.20;1.03;;;9.20;99.90;;;;;;5004525;28;20960;-54
2021/11/04 03:36:58;;;;;;;1.30;1.10;;;9.20;99.90;;;;;;5016470;28;20481;-56
2021/11/04 03:39:25;;;;;;;1.10;1.00;;;9.20;99.90;;;;;;5016374;28;20424;-57
2021/11/04 03:41:53;;;;;;;0.70;0.60;;;9.10;99.90;;;;;;5016410;28;20461;-57
2021/11/04 03:44:23;;;;;;;0.80;0.70;;;9.10;99.90;;;;;;5015916;28;20404;-50
2021/11/04 03:46:51;;;;;;;0.80;0.67;;;9.10;99.90;;;;;;5016263;28;20400;-53
2021/11/04 03:49:18;;;;;;;1.00;0.80;;;9.00;99.90;;;;;;5015945;28;20401;-51
2021/11/04 03:51:46;;;;;;;0.80;0.70;;;8.90;99.90;;;;;;5015452;28;20424;-50
2021/11/04 03:54:12;;;;;;;0.77;0.70;;;9.00;99.90;;;;;;5014672;28;20411;-51
2021/11/04 03:56:39;;;;;;;1.07;0.90;;;9.00;99.90;;;;;;5015803;28;20410;-54
2021/11/04 03:59:05;;;;;;;1.20;1.10;;;8.80;99.90;;;;;;5016211;28;20468;-56
2021/11/04 04:01:32;;;;;;;0.90;0.90;;;8.90;99.90;;;;;;5015571;28;20437;-55
2021/11/04 04:03:58;;;;;;;1.60;0.97;;;9.10;99.90;;;;;;5015817;28;20510;-57
2021/11/04 04:06:24;;;;;;;1.03;0.70;;;9.10;99.90;;;;;;5015616;28;20538;-53
2021/11/04 04:08:52;;;;;;;1.30;0.83;;;9.10;99.90;;;;;;5015963;28;20492;-55
2021/11/04 04:11:17;;;;;;;1.10;0.97;;;9.10;99.90;;;;;;5015599;28;20193;-58
2021/11/04 04:13:43;;;;;;;1.43;0.97;;;9.00;99.90;;;;;;5015543;28;20405;-58
2021/11/04 04:16:09;;;;;;;0.87;0.80;;;8.90;99.90;;;;;;5015367;28;20173;-58
2021/11/04 04:18:34;;;;;;;0.93;0.83;;;9.00;99.90;;;;;;5015416;28;20197;-54
2021/11/04 04:21:00;;;;;;;1.43;1.10;;;9.00;99.90;;;;;;5014877;28;20228;-56
2021/11/04 04:23:25;;;;;;;0.73;0.70;;;8.90;99.90;;;;;;5015593;28;20258;-57
2021/11/04 04:25:51;;;;;;;0.80;0.80;;;8.70;99.90;;;;;;5015314;28;20198;-57
2021/11/04 04:28:18;;;;;;;1.50;0.97;;;8.80;99.90;;;;;;5015257;28;20594;-58
2021/11/04 04:30:45;;;;;;;1.03;0.80;;;8.90;99.90;;;;;;5041693;22;20233;-60
2021/11/04 04:33:11;;;;;;;0.80;0.73;;;8.70;99.90;;;;;;5035068;28;20845;-59
2021/11/04 04:35:36;;;;;;;0.80;0.80;;;8.40;99.90;;;;;;5035250;28;20437;-59
2021/11/04 04:38:02;;;;;;;1.10;1.00;;;8.50;99.90;;;;;;5033654;28;20232;-60
2021/11/04 04:40:27;;;;;;;3.07;1.00;;;8.50;99.90;;;;;;5032321;28;20263;-58
2021/11/04 04:42:53;;;;;;;1.10;1.00;;;8.50;99.90;;;;;;5015308;28;20641;-60
2021/11/04 04:45:19;;;;;;;1.17;1.00;;;8.60;99.90;;;;;;5014654;28;20681;-60
2021/11/04 04:47:44;;;;;;;1.63;1.00;;;8.40;99.90;;;;;;5014856;28;20202;-60
2021/11/04 04:50:11;;;;;;;1.10;1.00;;;8.60;99.90;;;;;;5015284;28;20166;-60
2021/11/04 04:52:37;;;;;;;1.30;1.00;;;8.60;99.90;;;;;;5014620;28;20165;-59
2021/11/04 04:55:04;;;;;;;1.17;0.90;;;8.70;99.90;;;;;;5014739;28;20410;-60
2021/11/04 04:57:29;;;;;;;1.10;1.00;;;8.70;99.90;;;;;;5014604;28;20822;-60
2021/11/04 04:59:57;;;;;;;1.03;0.83;;;8.60;99.90;;;;;;5014597;28;20496;-57
2021/11/04 05:02:23;;;;;;;0.80;0.80;;;8.70;99.90;;;;;;5014561;28;20182;-60
2021/11/04 05:04:49;;;;;;;0.90;0.90;;;8.90;99.90;;;;;;5014342;28;20451;-59
2021/11/04 05:07:16;;;;;;;1.40;1.03;;;9.00;99.90;;;;;;5013773;28;20426;-59
2021/11/04 05:09:42;;;;;;;1.30;0.97;;;9.00;99.90;;;;;;5014700;28;20179;-59
2021/11/04 05:12:08;;;;;;;1.00;0.93;;;8.90;99.90;;;;;;5014649;28;20434;-59
2021/11/04 05:14:33;;;;;;;1.07;0.97;;;8.90;99.90;;;;;;5014149;28;20174;-60
2021/11/04 05:16:59;;;;;;;1.00;0.90;;;8.90;99.90;;;;;;5014350;28;20407;-60
2021/11/04 05:19:25;;;;;;;1.93;1.10;;;8.80;99.90;;;;;;5013974;28;20197;-60
2021/11/04 05:21:50;;;;;;;1.00;0.90;;;8.70;99.90;;;;;;5014006;28;20208;-58
2021/11/04 05:24:16;;;;;;;1.30;1.13;;;8.70;99.90;;;;;;5014502;28;20181;-60
2021/11/04 05:26:42;;;;;;;1.47;1.20;;;8.70;99.90;;;;;;5013319;28;20194;-60
2021/11/04 05:29:08;;;;;;;3.00;2.63;;;8.70;99.90;;;;;;5014153;28;20186;-60
2021/11/04 05:31:35;;;;;;;3.57;1.30;;;8.70;99.90;;;;;;5013749;28;20491;-57
2021/11/04 05:34:01;;;;;;;15.23;10.30;;;8.70;99.90;;;;;;5013990;28;20401;-59
2021/11/04 05:36:26;;;;;;;9.33;7.27;;;8.70;99.90;;;;;;5014402;28;20170;-59
2021/11/04 05:38:54;;;;;;;44.37;32.67;;;8.70;99.90;;;;;;5001925;28;20403;-58
2021/11/04 05:41:20;;;;;;;16.77;12.67;;;8.60;99.90;;;;;;4994212;28;20200;-58
2021/11/04 05:43:46;;;;;;;30.33;23.33;;;8.60;99.90;;;;;;4994609;28;20403;-58
2021/11/04 05:46:12;;;;;;;19.63;16.50;;;8.60;99.90;;;;;;4994350;28;20511;-58
2021/11/04 05:48:38;;;;;;;5.87;5.17;;;8.50;99.90;;;;;;4994555;28;20171;-59
2021/11/04 05:51:04;;;;;;;2.37;2.17;;;8.50;99.90;;;;;;4994571;28;20425;-60
2021/11/04 05:53:30;;;;;;;6.27;5.67;;;8.40;99.90;;;;;;4994107;28;20407;-59
2021/11/04 05:55:55;;;;;;;5.60;5.10;;;8.40;99.90;;;;;;5003181;28;20429;-60
2021/11/04 05:58:21;;;;;;;5.80;5.30;;;8.40;99.90;;;;;;5013812;28;20174;-59
2021/11/04 06:00:47;;;;;;;5.00;4.60;;;8.30;99.90;;;;;;5012621;28;20222;-58
2021/11/04 06:03:12;;;;;;;4.90;4.03;;;8.50;99.90;;;;;;5014031;28;20179;-59
2021/11/04 06:05:39;;;;;;;1.93;1.80;;;8.60;99.90;;;;;;5013703;28;20191;-59
2021/11/04 06:08:05;;;;;;;1.10;1.00;;;8.60;99.90;;;;;;5013810;28;20180;-59
2021/11/04 06:10:30;;;;;;;1.50;1.40;;;8.50;99.90;;;;;;5012271;28;20491;-59
2021/11/04 06:12:56;;;;;;;1.30;1.20;;;8.50;99.90;;;;;;5013666;28;20165;-59
2021/11/04 06:15:22;;;;;;;1.00;0.83;;;8.60;99.90;;;;;;5013089;28;20651;-59
2021/11/04 06:17:47;;;;;;;0.80;0.70;;;8.50;99.90;;;;;;5013403;28;20177;-61
2021/11/04 06:20:13;;;;;;;1.10;0.70;;;8.60;99.90;;;;;;5013713;28;20439;-58
2021/11/04 06:22:39;;;;;;;1.00;0.93;;;8.70;99.90;;;;;;5013519;28;20182;-59
2021/11/04 06:25:05;;;;;;;1.20;1.10;;;8.80;99.90;;;;;;5012505;28;20232;-61
2021/11/04 06:27:30;;;;;;;1.67;0.97;;;8.90;99.90;;;;;;5006018;28;20179;-56
2021/11/04 06:29:56;;;;;;;1.30;1.20;;;9.00;99.90;;;;;;4996413;28;20476;-58
2021/11/04 06:32:22;;;;;;;0.90;0.90;;;8.90;99.90;;;;;;5013441;28;20207;-57
2021/11/04 06:34:48;;;;;;;0.80;0.80;;;8.70;99.90;;;;;;5013563;28;20593;-57
2021/11/04 06:37:14;;;;;;;1.90;1.03;;;8.80;99.90;;;;;;5013455;28;20179;-58
2021/11/04 06:39:39;;;;;;;1.30;1.20;;;8.90;99.90;;;;;;5013466;28;20632;-56
2021/11/04 06:42:06;;;;;;;1.60;1.50;;;9.00;99.90;;;;;;5013504;28;20495;-58
2021/11/04 06:44:31;;;;;;;1.10;1.00;;;9.00;99.90;;;;;;5013309;28;20620;-57
2021/11/04 06:47:02;;;;;;;1.50;1.23;;;9.00;99.90;;;;;;5013143;28;20417;-56
2021/11/04 06:49:33;;;;;;;1.70;1.60;;;8.90;99.90;;;;;;5012279;28;20260;-59
2021/11/04 06:51:59;;;;;;;1.43;1.30;;;8.80;99.90;;;;;;5013511;28;20842;-59
2021/11/04 06:54:26;;;;;;;1.10;1.00;;;8.80;99.90;;;;;;5013270;28;20405;-59
2021/11/04 06:56:52;;;;;;;1.07;0.97;;;8.80;99.90;;;;;;5013300;28;20541;-59
2021/11/04 06:59:21;;;;;;;1.73;1.37;;;8.90;99.90;;;;;;5013860;28;20437;-59
2021/11/04 07:01:57;;;;;;;1.50;1.40;;;8.90;99.90;;;;;;5012949;28;20452;-59
2021/11/04 07:04:35;;;;;;;1.50;1.37;;;8.90;99.90;;;;;;5013363;28;20898;-57
2021/11/04 07:07:12;;;;;;;1.60;1.50;;;8.90;99.90;;;;;;5013092;28;20409;-59
2021/11/04 07:09:40;;;;;;;1.73;1.30;;;9.00;99.90;;;;;;5013593;28;20467;-59
2021/11/04 07:12:08;;;;;;;1.67;1.43;;;9.00;99.90;;;;;;5012828;28;20486;-59
2021/11/04 07:14:36;;;;;;;2.27;1.73;;;9.00;99.90;;;;;;5013208;28;20464;-59
2021/11/04 07:17:04;;;;;;;1.33;1.23;;;9.10;99.90;;;;;;5012777;28;20402;-59
2021/11/04 07:19:30;;;;;;;1.60;1.33;;;9.00;99.90;;;;;;5012960;28;20408;-60
2021/11/04 07:22:20;;;;;;;1.70;1.23;;;8.80;99.90;;;;;;5013206;28;20433;-60
2021/11/04 07:25:03;;;;;;;1.97;1.30;;;8.90;99.90;;;;;;5012771;28;20490;-59
2021/11/04 07:27:52;;;;;;;1.43;1.10;;;8.90;99.90;;;;;;5014599;28;20478;-57
2021/11/04 07:30:19;;;;;;;2.67;1.30;;;8.90;99.90;;;;;;5016073;28;20410;-59
2021/11/04 07:32:57;;;;;;;1.50;1.40;;;9.00;99.90;;;;;;5016514;28;20390;-58
2021/11/04 07:35:25;;;;;;;2.10;1.67;;;8.90;99.90;;;;;;5016351;28;20431;-58
2021/11/04 07:37:51;;;;;;;1.47;1.20;;;8.80;99.90;;;;;;5014094;28;20439;-59
2021/11/04 07:40:21;;;;;;;1.50;1.40;;;9.00;99.90;;;;;;5016047;28;20917;-57
2021/11/04 07:42:47;;;;;;;0.97;0.87;;;9.10;99.90;;;;;;5016237;28;20410;-60
2021/11/04 07:45:13;;;;;;;1.43;1.10;;;9.10;99.90;;;;;;5016517;28;20441;-56
2021/11/04 07:47:41;;;;;;;1.47;1.27;;;9.30;99.90;;;;;;5007970;28;20412;-58
2021/11/04 07:50:10;;;;;;;1.60;1.10;;;9.30;99.90;;;;;;4996442;28;20912;-58
2021/11/04 07:52:39;;;;;;;1.53;1.23;;;9.30;99.90;;;;;;4996170;28;20908;-57
2021/11/04 07:55:06;;;;;;;1.50;1.40;;;9.30;99.90;;;;;;4996395;28;20413;-60
2021/11/04 07:57:36;;;;;;;1.90;1.63;;;9.10;99.90;;;;;;4996480;28;20755;-59
2021/11/04 08:00:07;;;;;;;1.80;1.60;;;9.20;99.90;;;;;;4996100;28;20445;-59
2021/11/04 08:02:33;;;;;;;2.13;1.37;;;9.20;99.90;;;;;;4996162;28;20439;-57
2021/11/04 08:04:59;;;;;;;1.80;1.70;;;8.90;99.90;;;;;;4997265;28;20449;-58
2021/11/04 08:07:25;;;;;;;1.73;1.63;;;8.80;99.90;;;;;;5012735;28;20941;-56
2021/11/04 08:09:51;;;;;;;1.40;1.30;;;8.80;99.90;;;;;;5015965;28;20456;-59
2021/11/04 08:12:16;;;;;;;2.40;1.90;;;8.60;99.90;;;;;;5015832;28;20668;-57
2021/11/04 08:14:42;;;;;;;2.43;2.23;;;8.70;99.90;;;;;;5015850;28;20182;-58
2021/11/04 08:17:08;;;;;;;3.43;3.13;;;9.00;99.90;;;;;;5015763;28;20176;-58
2021/11/04 08:19:34;;;;;;;2.27;2.17;;;8.90;99.90;;;;;;5015440;28;20163;-60
2021/11/04 08:22:01;;;;;;;2.27;2.07;;;8.90;99.90;;;;;;5015081;28;20458;-59
2021/11/04 08:24:27;;;;;;;2.37;2.17;;;8.80;99.90;;;;;;5015544;28;20401;-58
2021/11/04 08:26:53;;;;;;;2.70;2.00;;;8.70;99.90;;;;;;5015510;28;20452;-60
2021/11/04 08:29:19;;;;;;;2.50;2.30;;;8.70;99.90;;;;;;5015558;28;20178;-58
2021/11/04 08:31:44;;;;;;;3.90;2.33;;;8.80;99.90;;;;;;5015154;28;20222;-56
2021/11/04 08:34:10;;;;;;;3.37;2.83;;;8.90;99.90;;;;;;5015270;28;20413;-58
2021/11/04 08:36:36;;;;;;;2.53;2.33;;;9.00;99.90;;;;;;5015241;28;20183;-58
2021/11/04 08:39:02;;;;;;;2.77;2.57;;;8.90;99.90;;;;;;5014913;28;20175;-59
2021/11/04 08:41:28;;;;;;;2.87;2.40;;;9.00;99.90;;;;;;5015272;28;20246;-56
2021/11/04 08:43:53;;;;;;;3.37;2.60;;;8.80;99.90;;;;;;5015627;28;20405;-57
2021/11/04 08:46:19;;;;;;;3.00;2.73;;;8.70;99.90;;;;;;5014910;28;20447;-54
2021/11/04 08:48:45;;;;;;;3.00;2.80;;;8.90;99.90;;;;;;5015542;28;20177;-59
2021/11/04 08:51:11;;;;;;;3.13;2.83;;;8.80;99.90;;;;;;5014875;28;20433;-56
2021/11/04 08:53:36;;;;;;;3.73;2.63;;;8.70;99.90;;;;;;5015683;28;20534;-58
2021/11/04 08:56:02;;;;;;;3.20;2.47;;;8.70;99.90;;;;;;5015376;28;20404;-60
2021/11/04 08:58:28;;;;;;;3.40;3.07;;;8.90;99.90;;;;;;5015193;28;20183;-59
2021/11/04 09:00:54;;;;;;;3.23;2.60;;;9.10;99.90;;;;;;5014877;28;20195;-58
2021/11/04 09:03:22;;;;;;;2.70;2.50;;;9.20;99.90;;;;;;5014801;28;20178;-55
2021/11/04 09:05:47;;;;;;;3.87;3.20;;;8.80;99.90;;;;;;5014195;28;20453;-59
2021/11/04 09:08:13;;;;;;;2.97;2.30;;;8.80;99.90;;;;;;5014333;28;20509;-59
2021/11/04 09:10:40;;;;;;;3.50;2.80;;;8.70;99.90;;;;;;5014770;28;20185;-59
2021/11/04 09:13:08;;;;;;;3.13;2.47;;;8.60;99.90;;;;;;5015076;28;20179;-60
2021/11/04 09:15:34;;;;;;;2.47;2.27;;;8.90;99.90;;;;;;5014665;28;20419;-58
2021/11/04 09:18:01;;;;;;;4.70;2.47;;;8.90;99.90;;;;;;5014040;28;20423;-59
2021/11/04 09:20:27;;;;;;;2.20;2.00;;;9.10;99.90;;;;;;5003337;28;20429;-59
2021/11/04 09:22:53;;;;;;;2.77;2.57;;;9.10;99.90;;;;;;5014173;28;20406;-56
2021/11/04 09:25:21;;;;;;;2.67;2.20;;;8.90;99.90;;;;;;5014594;28;20454;-56
2021/11/04 09:27:48;;;;;;;3.30;2.37;;;8.80;99.90;;;;;;5014331;28;20778;-59
2021/11/04 09:30:15;;;;;;;2.30;2.10;;;8.80;99.90;;;;;;5014341;28;20818;-57
2021/11/04 09:32:42;;;;;;;2.13;2.00;;;8.90;99.90;;;;;;5014975;28;20424;-60
2021/11/04 09:35:09;;;;;;;3.20;2.90;;;9.00;99.90;;;;;;5014141;28;20418;-60
2021/11/04 09:37:34;;;;;;;1.97;1.80;;;8.80;99.90;;;;;;5013843;28;20508;-60
2021/11/04 09:40:00;;;;;;;2.23;2.00;;;8.70;99.90;;;;;;5014260;28;20480;-60
2021/11/04 09:42:26;;;;;;;3.87;2.40;;;8.90;99.90;;;;;;5014153;28;20253;-59
2021/11/04 09:44:54;;;;;;;2.00;1.80;;;9.00;99.90;;;;;;5014003;28;20202;-59
2021/11/04 09:47:24;;;;;;;2.47;2.27;;;9.00;99.90;;;;;;5014159;28;20167;-60
2021/11/04 09:49:52;;;;;;;2.37;2.10;;;9.00;99.90;;;;;;5013897;28;20486;-59
2021/11/04 09:52:25;;;;;;;2.23;1.70;;;8.90;99.90;;;;;;5012965;28;20430;-58
2021/11/04 09:54:52;;;;;;;1.87;1.77;;;8.70;99.90;;;;;;5010229;28;20398;-59
2021/11/04 09:57:18;;;;;;;2.70;1.93;;;8.90;99.90;;;;;;4994284;28;20414;-55
2021/11/04 09:59:43;;;;;;;3.23;1.50;;;8.90;99.90;;;;;;4994200;28;20466;-56
2021/11/04 10:02:16;;;;;;;2.57;2.37;;;8.90;99.90;;;;;;4994137;28;20548;-59
2021/11/04 10:04:44;;;;;;;2.20;2.00;;;8.80;99.90;;;;;;4994221;28;20192;-57
2021/11/04 10:07:10;;;;;;;1.80;1.53;;;8.80;99.90;;;;;;5008896;28;20426;-59
2021/11/04 10:09:35;;;;;;;2.00;1.90;;;8.70;99.90;;;;;;5013744;28;20923;-58
2021/11/04 10:12:14;;;;;;;1.43;1.33;;;8.80;99.90;;;;;;5013900;28;20440;-57
2021/11/04 10:14:40;;;;;;;1.70;1.60;;;8.90;99.90;;;;;;5013894;28;20562;-59
2021/11/04 10:17:36;;;;;;;2.17;1.37;;;9.00;99.90;;;;;;5013655;28;20412;-57
2021/11/04 10:20:16;;;;;;;2.27;1.30;;;8.90;99.90;;;;;;5014004;28;20394;-56
2021/11/04 10:22:42;;;;;;;1.70;1.33;;;8.80;99.90;;;;;;5013485;28;20878;-58
2021/11/04 10:25:28;;;;;;;1.53;1.10;;;8.50;99.90;;;;;;5013601;28;20459;-57
2021/11/04 10:27:54;;;;;;;1.00;0.87;;;8.60;99.90;;;;;;5012990;28;20222;-56
2021/11/04 10:30:43;;;;;;;1.10;1.00;;;8.60;99.90;;;;;;5013497;28;20419;-57
2021/11/04 10:33:17;;;;;;;1.17;1.07;;;8.60;99.90;;;;;;5028147;23;20642;-59
2021/11/04 10:35:48;;;;;;;1.50;1.30;;;8.80;99.90;;;;;;5013333;28;20389;-59
2021/11/04 10:38:13;;;;;;;1.37;1.17;;;8.80;99.90;;;;;;4995066;28;20401;-57
2021/11/04 10:40:41;;;;;;;0.93;0.83;;;8.70;99.90;;;;;;4995318;28;20416;-59
2021/11/04 10:43:06;;;;;;;2.80;1.50;;;8.70;99.90;;;;;;5012823;28;20183;-58
2021/11/04 10:45:32;;;;;;;2.20;1.30;;;8.70;99.90;;;;;;5013228;28;21019;-57
2021/11/04 10:48:21;;;;;;;1.73;1.40;;;8.60;99.90;;;;;;5013013;28;20217;-55
2021/11/04 10:50:47;;;;;;;2.10;1.70;;;8.70;99.90;;;;;;5013319;28;20165;-57
2021/11/04 10:53:23;;;;;;;2.00;1.50;;;8.70;99.90;;;;;;5012547;28;20449;-59
2021/11/04 10:55:53;;;;;;;2.20;1.13;;;8.60;99.90;;;;;;5013244;28;20869;-59
2021/11/04 10:58:31;;;;;;;1.63;1.53;;;8.80;99.90;;;;;;5013211;28;20519;-57
2021/11/04 11:00:58;;;;;;;2.90;1.20;;;8.80;99.90;;;;;;5012987;28;20751;-56
2021/11/04 11:03:24;;;;;;;1.37;1.27;;;8.80;99.90;;;;;;5015368;28;20425;-52
2021/11/04 11:05:55;;;;;;;2.07;1.67;;;8.70;99.90;;;;;;5016786;28;20817;-56
2021/11/04 11:08:21;;;;;;;2.23;1.33;;;8.60;99.90;;;;;;5016480;28;20489;-54
2021/11/04 11:10:46;;;;;;;1.37;1.20;;;8.70;99.90;;;;;;5016839;28;20832;-59
2021/11/04 11:13:12;;;;;;;1.30;1.20;;;8.80;99.90;;;;;;5016649;28;20517;-57
2021/11/04 11:15:41;;;;;;;1.47;1.37;;;9.00;99.90;;;;;;5016509;28;20201;-55
2021/11/04 11:18:08;;;;;;;3.63;1.40;;;9.30;99.90;;;;;;5016050;28;20186;-55
2021/11/04 11:20:44;;;;;;;2.87;1.57;;;9.40;99.90;;;;;;4998745;28;20426;-59
2021/11/04 11:23:13;;;;;;;1.63;1.53;;;9.30;99.90;;;;;;5016135;28;20987;-57
2021/11/04 11:25:39;;;;;;;2.33;1.60;;;9.20;99.90;;;;;;5016586;28;20479;-59
2021/11/04 11:28:06;;;;;;;1.83;1.60;;;9.20;99.90;;;;;;5016450;28;20437;-50
2021/11/04 11:30:33;;;;;;;1.90;1.70;;;9.20;99.90;;;;;;5016617;28;20897;-56
2021/11/04 11:33:18;;;;;;;2.13;1.90;;;9.20;99.90;;;;;;5016064;28;20453;-58
2021/11/04 11:36:10;;;;;;;1.70;1.60;;;9.30;99.90;;;;;;5016228;28;20434;-57
2021/11/04 11:38:58;;;;;;;2.23;2.03;;;9.20;99.90;;;;;;5016280;28;20389;-57
2021/11/04 11:41:26;;;;;;;2.30;2.10;;;9.00;99.90;;;;;;5016147;28;20461;-56
2021/11/04 11:44:07;;;;;;;3.33;3.03;;;9.10;99.90;;;;;;5016194;28;20421;-58
2021/11/04 11:47:05;;;;;;;2.93;2.67;;;9.10;99.90;;;;;;5016232;28;20880;-56
2021/11/04 11:49:32;;;;;;;3.67;3.10;;;9.10;99.90;;;;;;5012676;28;20449;-57
2021/11/04 11:51:58;;;;;;;3.13;2.83;;;9.10;99.90;;;;;;4998106;28;20517;-58
2021/11/04 11:55:06;;;;;;;3.60;3.30;;;8.80;99.90;;;;;;5016122;28;20418;-57
2021/11/04 11:57:33;;;;;;;4.53;4.13;;;8.70;99.90;;;;;;5006602;28;20680;-57
2021/11/04 11:59:59;;;;;;;4.30;3.90;;;8.60;99.90;;;;;;5015710;28;20408;-57
2021/11/04 12:02:34;;;;;;;5.30;4.57;;;8.80;99.90;;;;;;5015852;28;20461;-58
2021/11/04 12:05:21;;;;;;;5.30;4.50;;;9.10;99.90;;;;;;5015929;28;20813;-56
2021/11/04 12:07:55;;;;;;;4.40;4.00;;;8.90;99.90;;;;;;5015559;28;20481;-53
2021/11/04 12:10:29;;;;;;;5.77;5.13;;;9.10;99.90;;;;;;5015582;28;20427;-58
2021/11/04 12:12:55;;;;;;;5.50;5.00;;;9.40;99.90;;;;;;5004460;28;20441;-58
2021/11/04 12:15:21;;;;;;;5.70;5.13;;;9.10;99.90;;;;;;5014867;28;20428;-56
2021/11/04 12:18:13;;;;;;;5.30;4.80;;;9.20;99.90;;;;;;5015165;28;20407;-58
2021/11/04 12:20:55;;;;;;;4.50;4.10;;;9.30;99.90;;;;;;5015202;28;20222;-56
2021/11/04 12:23:29;;;;;;;5.67;4.93;;;9.30;99.90;;;;;;5015197;28;20428;-56
2021/11/04 12:25:55;;;;;;;6.80;5.17;;;9.20;99.90;;;;;;5015800;28;20453;-55
2021/11/04 12:28:20;;;;;;;5.57;5.10;;;9.30;99.90;;;;;;5015152;28;20410;-58
2021/11/04 12:30:47;;;;;;;6.90;6.03;;;9.40;99.90;;;;;;5015611;28;20167;-55
2021/11/04 12:33:14;;;;;;;5.90;5.40;;;9.60;99.90;;;;;;4997050;28;20207;-58
2021/11/04 12:35:49;;;;;;;5.90;5.30;;;9.70;99.90;;;;;;5015474;28;20419;-53
2021/11/04 12:38:23;;;;;;;5.80;5.20;;;9.40;99.90;;;;;;5014948;28;20453;-56
2021/11/04 12:41:05;;;;;;;5.80;5.20;;;9.40;99.90;;;;;;5015189;28;20395;-57
2021/11/04 12:43:34;;;;;;;9.60;8.30;;;9.70;99.90;;;;;;5015343;28;20448;-56
2021/11/04 12:46:24;;;;;;;8.37;7.43;;;9.90;99.90;;;;;;5015228;28;20850;-50
2021/11/04 12:49:02;;;;;;;7.10;5.60;;;10.00;99.90;;;;;;5015115;28;20412;-58
2021/11/04 12:51:46;;;;;;;25.17;14.87;;;10.00;99.90;;;;;;5014674;28;20422;-53
2021/11/04 12:54:19;;;;;;;7.37;6.47;;;10.00;99.90;;;;;;5015176;28;20797;-57
2021/11/04 12:56:58;;;;;;;6.77;5.10;;;9.80;99.90;;;;;;5014801;28;20420;-56
2021/11/04 12:59:32;;;;;;;6.70;6.10;;;9.70;99.90;;;;;;5014971;28;20392;-57
2021/11/04 13:02:03;;;;;;;6.80;6.20;;;9.50;99.90;;;;;;5014911;28;20431;-57
2021/11/04 13:04:37;;;;;;;6.90;6.30;;;9.40;99.90;;;;;;5014877;28;20413;-54